sensor_id;sensor_type;location;lat;lon;timestamp;P1;durP1;ratioP1;P2;durP2;ratioP2
11608;SDS011;5860;52.018;8.536;2023-07-08T00:01:16;6.10;;;3.03;;
11608;SDS011;5860;52.018;8.536;2023-07-08T00:03:44;4.53;;;3.30;;
11608;SDS011;5860;52.018;8.536;2023-07-08T00:08:44;6.80;;;3.43;;
11608;SDS011;5860;52.018;8.536;2023-07-08T00:11:12;6.90;;;3.17;;
11608;SDS011;5860;52.018;8.536;2023-07-08T00:13:41;7.10;;;3.07;;
11608;SDS011;5860;52.018;8.536;2023-07-08T00:16:11;4.57;;;3.20;;
11608;SDS011;5860;52.018;8.536;2023-07-08T00:18:43;9.50;;;3.77;;
11608;SDS011;5860;52.018;8.536;2023-07-08T00:21:11;5.17;;;3.40;;
11608;SDS011;5860;52.018;8.536;2023-07-08T00:23:46;8.93;;;3.03;;
11608;SDS011;5860;52.018;8.536;2023-07-08T00:26:28;9.00;;;3.33;;
11608;SDS011;5860;52.018;8.536;2023-07-08T00:28:56;5.20;;;2.97;;
11608;SDS011;5860;52.018;8.536;2023-07-08T00:31:23;3.87;;;3.27;;
11608;SDS011;5860;52.018;8.536;2023-07-08T00:33:52;5.07;;;3.37;;
11608;SDS011;5860;52.018;8.536;2023-07-08T00:36:24;6.73;;;3.80;;
11608;SDS011;5860;52.018;8.536;2023-07-08T00:38:53;8.53;;;3.50;;
11608;SDS011;5860;52.018;8.536;2023-07-08T00:41:21;5.47;;;3.60;;
11608;SDS011;5860;52.018;8.536;2023-07-08T00:43:53;4.30;;;3.60;;
11608;SDS011;5860;52.018;8.536;2023-07-08T00:51:41;6.60;;;4.20;;
11608;SDS011;5860;52.018;8.536;2023-07-08T00:54:12;6.53;;;4.80;;
11608;SDS011;5860;52.018;8.536;2023-07-08T00:56:41;6.73;;;4.50;;
11608;SDS011;5860;52.018;8.536;2023-07-08T00:59:31;7.70;;;4.53;;
11608;SDS011;5860;52.018;8.536;2023-07-08T01:02:02;7.73;;;4.53;;
11608;SDS011;5860;52.018;8.536;2023-07-08T01:04:54;6.23;;;4.33;;
11608;SDS011;5860;52.018;8.536;2023-07-08T01:07:25;6.63;;;4.40;;
11608;SDS011;5860;52.018;8.536;2023-07-08T01:09:57;5.63;;;4.37;;
11608;SDS011;5860;52.018;8.536;2023-07-08T01:12:31;11.27;;;4.73;;
11608;SDS011;5860;52.018;8.536;2023-07-08T01:15:02;5.80;;;4.13;;
11608;SDS011;5860;52.018;8.536;2023-07-08T01:17:30;5.73;;;4.10;;
11608;SDS011;5860;52.018;8.536;2023-07-08T01:19:59;9.20;;;4.17;;
11608;SDS011;5860;52.018;8.536;2023-07-08T01:22:27;5.97;;;4.17;;
11608;SDS011;5860;52.018;8.536;2023-07-08T01:24:58;5.90;;;4.30;;
11608;SDS011;5860;52.018;8.536;2023-07-08T01:27:31;7.23;;;3.57;;
11608;SDS011;5860;52.018;8.536;2023-07-08T01:30:03;10.30;;;3.93;;
11608;SDS011;5860;52.018;8.536;2023-07-08T01:32:32;4.40;;;3.43;;
11608;SDS011;5860;52.018;8.536;2023-07-08T01:35:02;4.73;;;3.73;;
11608;SDS011;5860;52.018;8.536;2023-07-08T01:37:37;5.27;;;3.57;;
11608;SDS011;5860;52.018;8.536;2023-07-08T01:42:57;7.90;;;4.20;;
11608;SDS011;5860;52.018;8.536;2023-07-08T01:45:27;5.60;;;4.30;;
11608;SDS011;5860;52.018;8.536;2023-07-08T01:48:00;5.63;;;4.03;;
11608;SDS011;5860;52.018;8.536;2023-07-08T01:50:31;9.63;;;3.90;;
11608;SDS011;5860;52.018;8.536;2023-07-08T01:53:01;4.00;;;3.60;;
11608;SDS011;5860;52.018;8.536;2023-07-08T01:55:33;7.47;;;4.33;;
11608;SDS011;5860;52.018;8.536;2023-07-08T01:58:00;4.53;;;3.80;;
11608;SDS011;5860;52.018;8.536;2023-07-08T02:00:27;6.17;;;4.47;;
11608;SDS011;5860;52.018;8.536;2023-07-08T02:02:54;6.13;;;3.73;;
11608;SDS011;5860;52.018;8.536;2023-07-08T02:05:22;7.57;;;3.73;;
11608;SDS011;5860;52.018;8.536;2023-07-08T02:07:49;4.57;;;3.57;;
11608;SDS011;5860;52.018;8.536;2023-07-08T02:10:17;4.20;;;3.80;;
11608;SDS011;5860;52.018;8.536;2023-07-08T02:12:43;5.10;;;4.03;;
11608;SDS011;5860;52.018;8.536;2023-07-08T02:15:10;4.97;;;4.00;;
11608;SDS011;5860;52.018;8.536;2023-07-08T02:17:37;6.50;;;4.00;;
11608;SDS011;5860;52.018;8.536;2023-07-08T02:20:05;4.93;;;3.60;;
11608;SDS011;5860;52.018;8.536;2023-07-08T02:22:32;4.13;;;3.40;;
11608;SDS011;5860;52.018;8.536;2023-07-08T02:24:59;6.00;;;3.90;;
11608;SDS011;5860;52.018;8.536;2023-07-08T02:27:26;7.17;;;3.70;;
11608;SDS011;5860;52.018;8.536;2023-07-08T02:29:53;6.57;;;3.70;;
11608;SDS011;5860;52.018;8.536;2023-07-08T02:32:20;4.97;;;4.07;;
11608;SDS011;5860;52.018;8.536;2023-07-08T02:34:47;6.00;;;4.07;;
11608;SDS011;5860;52.018;8.536;2023-07-08T02:37:13;4.87;;;3.87;;
11608;SDS011;5860;52.018;8.536;2023-07-08T02:39:40;5.37;;;4.00;;
11608;SDS011;5860;52.018;8.536;2023-07-08T02:42:08;5.27;;;4.23;;
11608;SDS011;5860;52.018;8.536;2023-07-08T02:44:35;6.13;;;4.27;;
11608;SDS011;5860;52.018;8.536;2023-07-08T02:47:01;5.70;;;3.83;;
11608;SDS011;5860;52.018;8.536;2023-07-08T02:49:29;6.00;;;4.37;;
11608;SDS011;5860;52.018;8.536;2023-07-08T02:51:56;8.80;;;4.13;;
11608;SDS011;5860;52.018;8.536;2023-07-08T02:54:23;6.60;;;4.57;;
11608;SDS011;5860;52.018;8.536;2023-07-08T02:56:50;4.70;;;4.00;;
11608;SDS011;5860;52.018;8.536;2023-07-08T02:59:17;5.80;;;3.97;;
11608;SDS011;5860;52.018;8.536;2023-07-08T03:01:44;6.47;;;4.40;;
11608;SDS011;5860;52.018;8.536;2023-07-08T03:04:13;5.47;;;3.87;;
11608;SDS011;5860;52.018;8.536;2023-07-08T03:06:41;9.10;;;4.80;;
11608;SDS011;5860;52.018;8.536;2023-07-08T03:09:09;5.70;;;4.50;;
11608;SDS011;5860;52.018;8.536;2023-07-08T03:11:38;4.97;;;4.40;;
11608;SDS011;5860;52.018;8.536;2023-07-08T03:14:05;5.27;;;4.37;;
11608;SDS011;5860;52.018;8.536;2023-07-08T03:16:33;5.93;;;4.37;;
11608;SDS011;5860;52.018;8.536;2023-07-08T03:19:00;4.97;;;4.00;;
11608;SDS011;5860;52.018;8.536;2023-07-08T03:21:27;8.13;;;4.37;;
11608;SDS011;5860;52.018;8.536;2023-07-08T03:23:54;10.47;;;4.10;;
11608;SDS011;5860;52.018;8.536;2023-07-08T03:26:22;6.63;;;4.47;;
11608;SDS011;5860;52.018;8.536;2023-07-08T03:28:51;5.60;;;4.30;;
11608;SDS011;5860;52.018;8.536;2023-07-08T03:31:18;7.90;;;4.77;;
11608;SDS011;5860;52.018;8.536;2023-07-08T03:33:45;4.97;;;3.97;;
11608;SDS011;5860;52.018;8.536;2023-07-08T03:36:16;9.03;;;4.33;;
11608;SDS011;5860;52.018;8.536;2023-07-08T03:38:55;7.13;;;4.23;;
11608;SDS011;5860;52.018;8.536;2023-07-08T03:41:23;5.37;;;4.37;;
11608;SDS011;5860;52.018;8.536;2023-07-08T03:43:50;5.27;;;4.23;;
11608;SDS011;5860;52.018;8.536;2023-07-08T03:46:18;6.30;;;3.93;;
11608;SDS011;5860;52.018;8.536;2023-07-08T03:48:47;6.83;;;4.60;;
11608;SDS011;5860;52.018;8.536;2023-07-08T03:51:17;10.17;;;4.57;;
11608;SDS011;5860;52.018;8.536;2023-07-08T03:53:51;6.83;;;4.80;;
11608;SDS011;5860;52.018;8.536;2023-07-08T03:56:19;7.03;;;4.93;;
11608;SDS011;5860;52.018;8.536;2023-07-08T03:58:46;6.07;;;4.30;;
11608;SDS011;5860;52.018;8.536;2023-07-08T04:01:14;5.53;;;4.63;;
11608;SDS011;5860;52.018;8.536;2023-07-08T04:03:43;6.00;;;4.80;;
11608;SDS011;5860;52.018;8.536;2023-07-08T04:06:10;6.03;;;4.53;;
11608;SDS011;5860;52.018;8.536;2023-07-08T04:08:37;12.73;;;4.53;;
11608;SDS011;5860;52.018;8.536;2023-07-08T04:11:04;7.50;;;4.83;;
11608;SDS011;5860;52.018;8.536;2023-07-08T04:13:32;6.13;;;4.97;;
11608;SDS011;5860;52.018;8.536;2023-07-08T04:15:59;6.43;;;4.00;;
11608;SDS011;5860;52.018;8.536;2023-07-08T04:18:30;6.40;;;4.63;;
11608;SDS011;5860;52.018;8.536;2023-07-08T04:20:57;5.87;;;4.97;;
11608;SDS011;5860;52.018;8.536;2023-07-08T04:23:28;7.55;;;4.53;;
11608;SDS011;5860;52.018;8.536;2023-07-08T04:25:55;8.43;;;4.85;;
11608;SDS011;5860;52.018;8.536;2023-07-08T04:28:23;5.22;;;4.13;;
11608;SDS011;5860;52.018;8.536;2023-07-08T04:30:50;6.07;;;4.50;;
11608;SDS011;5860;52.018;8.536;2023-07-08T04:33:17;5.05;;;4.22;;
11608;SDS011;5860;52.018;8.536;2023-07-08T04:35:45;5.72;;;4.75;;
11608;SDS011;5860;52.018;8.536;2023-07-08T04:38:19;5.15;;;4.10;;
11608;SDS011;5860;52.018;8.536;2023-07-08T04:40:49;6.95;;;3.90;;
11608;SDS011;5860;52.018;8.536;2023-07-08T04:43:17;5.22;;;4.03;;
11608;SDS011;5860;52.018;8.536;2023-07-08T04:45:46;6.13;;;4.30;;
11608;SDS011;5860;52.018;8.536;2023-07-08T04:48:17;4.10;;;3.70;;
11608;SDS011;5860;52.018;8.536;2023-07-08T04:50:45;4.82;;;3.60;;
11608;SDS011;5860;52.018;8.536;2023-07-08T04:53:14;4.75;;;3.63;;
11608;SDS011;5860;52.018;8.536;2023-07-08T04:55:42;5.88;;;4.20;;
11608;SDS011;5860;52.018;8.536;2023-07-08T04:58:11;8.30;;;3.80;;
11608;SDS011;5860;52.018;8.536;2023-07-08T05:00:38;5.43;;;3.70;;
11608;SDS011;5860;52.018;8.536;2023-07-08T05:03:05;5.53;;;3.35;;
11608;SDS011;5860;52.018;8.536;2023-07-08T05:05:32;4.20;;;3.40;;
11608;SDS011;5860;52.018;8.536;2023-07-08T05:07:59;4.65;;;3.13;;
11608;SDS011;5860;52.018;8.536;2023-07-08T05:10:27;5.15;;;2.92;;
11608;SDS011;5860;52.018;8.536;2023-07-08T05:12:54;3.85;;;2.75;;
11608;SDS011;5860;52.018;8.536;2023-07-08T05:15:21;4.00;;;3.00;;
11608;SDS011;5860;52.018;8.536;2023-07-08T05:17:49;4.22;;;2.97;;
11608;SDS011;5860;52.018;8.536;2023-07-08T05:20:18;3.35;;;2.78;;
11608;SDS011;5860;52.018;8.536;2023-07-08T05:22:45;5.60;;;2.95;;
11608;SDS011;5860;52.018;8.536;2023-07-08T05:25:13;3.22;;;2.90;;
11608;SDS011;5860;52.018;8.536;2023-07-08T05:27:41;4.32;;;3.00;;
11608;SDS011;5860;52.018;8.536;2023-07-08T05:30:09;5.10;;;3.13;;
11608;SDS011;5860;52.018;8.536;2023-07-08T05:32:40;4.10;;;3.10;;
11608;SDS011;5860;52.018;8.536;2023-07-08T05:35:07;3.55;;;2.60;;
11608;SDS011;5860;52.018;8.536;2023-07-08T05:37:36;4.30;;;2.60;;
11608;SDS011;5860;52.018;8.536;2023-07-08T05:40:03;4.43;;;2.65;;
11608;SDS011;5860;52.018;8.536;2023-07-08T05:42:31;4.57;;;3.25;;
11608;SDS011;5860;52.018;8.536;2023-07-08T05:44:58;4.00;;;2.67;;
11608;SDS011;5860;52.018;8.536;2023-07-08T05:47:24;3.45;;;2.70;;
11608;SDS011;5860;52.018;8.536;2023-07-08T05:49:52;3.88;;;3.00;;
11608;SDS011;5860;52.018;8.536;2023-07-08T05:52:19;3.22;;;2.60;;
11608;SDS011;5860;52.018;8.536;2023-07-08T05:54:46;4.32;;;2.53;;
11608;SDS011;5860;52.018;8.536;2023-07-08T05:57:13;5.20;;;2.70;;
11608;SDS011;5860;52.018;8.536;2023-07-08T05:59:40;4.90;;;2.65;;
11608;SDS011;5860;52.018;8.536;2023-07-08T06:02:10;5.60;;;2.80;;
11608;SDS011;5860;52.018;8.536;2023-07-08T06:04:39;2.80;;;2.60;;
11608;SDS011;5860;52.018;8.536;2023-07-08T06:07:06;3.63;;;2.63;;
11608;SDS011;5860;52.018;8.536;2023-07-08T06:09:33;9.80;;;2.78;;
11608;SDS011;5860;52.018;8.536;2023-07-08T06:12:01;3.60;;;2.85;;
11608;SDS011;5860;52.018;8.536;2023-07-08T06:14:28;5.18;;;2.67;;
11608;SDS011;5860;52.018;8.536;2023-07-08T06:16:57;3.42;;;2.78;;
11608;SDS011;5860;52.018;8.536;2023-07-08T06:19:25;4.30;;;2.75;;
11608;SDS011;5860;52.018;8.536;2023-07-08T06:21:52;5.22;;;2.47;;
11608;SDS011;5860;52.018;8.536;2023-07-08T06:24:18;4.43;;;2.63;;
11608;SDS011;5860;52.018;8.536;2023-07-08T06:26:45;4.97;;;2.65;;
11608;SDS011;5860;52.018;8.536;2023-07-08T06:29:24;8.00;;;2.72;;
11608;SDS011;5860;52.018;8.536;2023-07-08T06:31:51;3.42;;;2.65;;
11608;SDS011;5860;52.018;8.536;2023-07-08T06:34:19;4.28;;;2.58;;
11608;SDS011;5860;52.018;8.536;2023-07-08T06:36:49;4.82;;;2.55;;
11608;SDS011;5860;52.018;8.536;2023-07-08T06:39:17;3.97;;;2.78;;
11608;SDS011;5860;52.018;8.536;2023-07-08T06:41:45;6.53;;;2.42;;
11608;SDS011;5860;52.018;8.536;2023-07-08T06:44:12;5.38;;;2.65;;
11608;SDS011;5860;52.018;8.536;2023-07-08T06:46:38;4.20;;;2.53;;
11608;SDS011;5860;52.018;8.536;2023-07-08T06:49:05;4.18;;;2.63;;
11608;SDS011;5860;52.018;8.536;2023-07-08T06:51:38;3.88;;;2.65;;
11608;SDS011;5860;52.018;8.536;2023-07-08T06:54:05;4.93;;;2.42;;
11608;SDS011;5860;52.018;8.536;2023-07-08T06:56:38;7.07;;;3.05;;
11608;SDS011;5860;52.018;8.536;2023-07-08T06:59:06;3.28;;;2.40;;
11608;SDS011;5860;52.018;8.536;2023-07-08T07:01:36;4.95;;;2.80;;
11608;SDS011;5860;52.018;8.536;2023-07-08T07:04:03;5.82;;;3.15;;
11608;SDS011;5860;52.018;8.536;2023-07-08T07:06:31;3.63;;;2.70;;
11608;SDS011;5860;52.018;8.536;2023-07-08T07:08:58;5.13;;;2.78;;
11608;SDS011;5860;52.018;8.536;2023-07-08T07:11:25;8.02;;;2.45;;
11608;SDS011;5860;52.018;8.536;2023-07-08T07:13:51;6.63;;;2.50;;
11608;SDS011;5860;52.018;8.536;2023-07-08T07:16:18;4.30;;;2.50;;
11608;SDS011;5860;52.018;8.536;2023-07-08T07:18:46;4.43;;;2.90;;
11608;SDS011;5860;52.018;8.536;2023-07-08T07:21:13;3.38;;;2.72;;
11608;SDS011;5860;52.018;8.536;2023-07-08T07:23:40;4.50;;;2.50;;
11608;SDS011;5860;52.018;8.536;2023-07-08T07:26:07;3.03;;;2.35;;
11608;SDS011;5860;52.018;8.536;2023-07-08T07:28:34;5.97;;;2.70;;
11608;SDS011;5860;52.018;8.536;2023-07-08T07:31:02;3.53;;;2.63;;
11608;SDS011;5860;52.018;8.536;2023-07-08T07:33:32;7.28;;;2.53;;
11608;SDS011;5860;52.018;8.536;2023-07-08T07:35:59;3.75;;;2.67;;
11608;SDS011;5860;52.018;8.536;2023-07-08T07:38:26;5.35;;;2.60;;
11608;SDS011;5860;52.018;8.536;2023-07-08T07:40:55;4.50;;;2.55;;
11608;SDS011;5860;52.018;8.536;2023-07-08T07:43:22;4.45;;;2.60;;
11608;SDS011;5860;52.018;8.536;2023-07-08T07:45:50;2.92;;;2.33;;
11608;SDS011;5860;52.018;8.536;2023-07-08T07:48:19;3.92;;;2.53;;
11608;SDS011;5860;52.018;8.536;2023-07-08T07:50:46;2.88;;;2.60;;
11608;SDS011;5860;52.018;8.536;2023-07-08T07:53:14;5.68;;;2.80;;
11608;SDS011;5860;52.018;8.536;2023-07-08T07:55:41;3.55;;;2.70;;
11608;SDS011;5860;52.018;8.536;2023-07-08T07:58:08;5.57;;;2.72;;
11608;SDS011;5860;52.018;8.536;2023-07-08T08:00:38;8.93;;;2.50;;
11608;SDS011;5860;52.018;8.536;2023-07-08T08:03:05;3.50;;;2.90;;
11608;SDS011;5860;52.018;8.536;2023-07-08T08:05:32;4.38;;;2.70;;
11608;SDS011;5860;52.018;8.536;2023-07-08T08:07:59;3.10;;;2.70;;
11608;SDS011;5860;52.018;8.536;2023-07-08T08:10:26;5.25;;;2.60;;
11608;SDS011;5860;52.018;8.536;2023-07-08T08:12:53;3.13;;;2.85;;
11608;SDS011;5860;52.018;8.536;2023-07-08T08:15:20;4.20;;;2.33;;
11608;SDS011;5860;52.018;8.536;2023-07-08T08:17:48;3.80;;;2.58;;
11608;SDS011;5860;52.018;8.536;2023-07-08T08:20:18;4.10;;;2.90;;
11608;SDS011;5860;52.018;8.536;2023-07-08T08:22:46;4.93;;;3.03;;
11608;SDS011;5860;52.018;8.536;2023-07-08T08:25:14;3.55;;;3.00;;
11608;SDS011;5860;52.018;8.536;2023-07-08T08:27:42;3.72;;;3.00;;
11608;SDS011;5860;52.018;8.536;2023-07-08T08:30:10;7.68;;;3.30;;
11608;SDS011;5860;52.018;8.536;2023-07-08T08:32:37;3.53;;;2.90;;
11608;SDS011;5860;52.018;8.536;2023-07-08T08:35:05;4.45;;;3.00;;
11608;SDS011;5860;52.018;8.536;2023-07-08T08:37:32;4.25;;;2.95;;
11608;SDS011;5860;52.018;8.536;2023-07-08T08:39:59;5.75;;;2.83;;
11608;SDS011;5860;52.018;8.536;2023-07-08T08:42:28;4.00;;;2.78;;
11608;SDS011;5860;52.018;8.536;2023-07-08T08:45:10;5.05;;;2.97;;
11608;SDS011;5860;52.018;8.536;2023-07-08T08:47:42;8.18;;;3.17;;
11608;SDS011;5860;52.018;8.536;2023-07-08T08:53:05;4.03;;;2.90;;
11608;SDS011;5860;52.018;8.536;2023-07-08T08:55:38;4.30;;;2.85;;
11608;SDS011;5860;52.018;8.536;2023-07-08T09:03:16;4.75;;;2.83;;
11608;SDS011;5860;52.018;8.536;2023-07-08T09:05:47;6.28;;;3.28;;
11608;SDS011;5860;52.018;8.536;2023-07-08T09:11:05;5.60;;;2.85;;
11608;SDS011;5860;52.018;8.536;2023-07-08T09:14:03;4.47;;;3.08;;
11608;SDS011;5860;52.018;8.536;2023-07-08T09:16:40;4.43;;;3.13;;
11608;SDS011;5860;52.018;8.536;2023-07-08T09:19:24;3.72;;;3.42;;
11608;SDS011;5860;52.018;8.536;2023-07-08T09:27:42;3.47;;;3.17;;
11608;SDS011;5860;52.018;8.536;2023-07-08T09:30:13;4.10;;;3.00;;
11608;SDS011;5860;52.018;8.536;2023-07-08T09:32:41;5.55;;;3.30;;
11608;SDS011;5860;52.018;8.536;2023-07-08T09:35:11;3.22;;;2.92;;
11608;SDS011;5860;52.018;8.536;2023-07-08T09:37:45;3.40;;;3.10;;
11608;SDS011;5860;52.018;8.536;2023-07-08T09:40:17;3.85;;;3.42;;
11608;SDS011;5860;52.018;8.536;2023-07-08T09:42:50;4.47;;;3.72;;
11608;SDS011;5860;52.018;8.536;2023-07-08T09:45:23;3.92;;;3.58;;
11608;SDS011;5860;52.018;8.536;2023-07-08T09:47:54;5.68;;;3.40;;
11608;SDS011;5860;52.018;8.536;2023-07-08T09:50:24;6.85;;;3.40;;
11608;SDS011;5860;52.018;8.536;2023-07-08T09:52:55;4.85;;;3.80;;
11608;SDS011;5860;52.018;8.536;2023-07-08T09:55:31;3.72;;;3.42;;
11608;SDS011;5860;52.018;8.536;2023-07-08T09:57:58;4.35;;;3.92;;
11608;SDS011;5860;52.018;8.536;2023-07-08T10:00:32;6.35;;;4.43;;
11608;SDS011;5860;52.018;8.536;2023-07-08T10:03:08;5.30;;;4.07;;
11608;SDS011;5860;52.018;8.536;2023-07-08T10:05:46;4.65;;;3.80;;
11608;SDS011;5860;52.018;8.536;2023-07-08T10:08:16;4.38;;;3.97;;
11608;SDS011;5860;52.018;8.536;2023-07-08T10:10:46;6.50;;;4.43;;
11608;SDS011;5860;52.018;8.536;2023-07-08T10:13:26;5.13;;;4.63;;
11608;SDS011;5860;52.018;8.536;2023-07-08T10:15:56;4.28;;;3.88;;
11608;SDS011;5860;52.018;8.536;2023-07-08T10:18:30;4.47;;;4.07;;
11608;SDS011;5860;52.018;8.536;2023-07-08T10:21:01;6.30;;;4.57;;
11608;SDS011;5860;52.018;8.536;2023-07-08T10:23:57;5.72;;;4.15;;
11608;SDS011;5860;52.018;8.536;2023-07-08T10:27:00;5.18;;;3.97;;
11608;SDS011;5860;52.018;8.536;2023-07-08T10:29:52;6.13;;;4.05;;
11608;SDS011;5860;52.018;8.536;2023-07-08T10:34:59;4.95;;;4.07;;
11608;SDS011;5860;52.018;8.536;2023-07-08T10:37:42;5.13;;;4.03;;
11608;SDS011;5860;52.018;8.536;2023-07-08T10:43:15;4.28;;;3.88;;
11608;SDS011;5860;52.018;8.536;2023-07-08T10:48:27;5.63;;;4.32;;
11608;SDS011;5860;52.018;8.536;2023-07-08T11:09:54;6.32;;;4.25;;
11608;SDS011;5860;52.018;8.536;2023-07-08T11:12:33;4.00;;;3.70;;
11608;SDS011;5860;52.018;8.536;2023-07-08T11:17:40;4.90;;;4.40;;
11608;SDS011;5860;52.018;8.536;2023-07-08T11:20:15;6.68;;;4.60;;
11608;SDS011;5860;52.018;8.536;2023-07-08T11:22:49;10.95;;;4.30;;
11608;SDS011;5860;52.018;8.536;2023-07-08T11:25:27;4.55;;;4.15;;
11608;SDS011;5860;52.018;8.536;2023-07-08T11:27:56;5.78;;;4.10;;
11608;SDS011;5860;52.018;8.536;2023-07-08T11:30:26;6.43;;;4.57;;
11608;SDS011;5860;52.018;8.536;2023-07-08T11:33:03;4.82;;;4.25;;
11608;SDS011;5860;52.018;8.536;2023-07-08T11:38:31;7.80;;;4.28;;
11608;SDS011;5860;52.018;8.536;2023-07-08T11:41:14;4.90;;;3.97;;
11608;SDS011;5860;52.018;8.536;2023-07-08T11:46:14;4.68;;;4.20;;
11608;SDS011;5860;52.018;8.536;2023-07-08T11:48:49;6.22;;;4.50;;
11608;SDS011;5860;52.018;8.536;2023-07-08T11:51:25;5.28;;;4.50;;
11608;SDS011;5860;52.018;8.536;2023-07-08T11:54:00;4.70;;;4.20;;
11608;SDS011;5860;52.018;8.536;2023-07-08T11:59:24;5.65;;;4.53;;
11608;SDS011;5860;52.018;8.536;2023-07-08T12:01:54;4.60;;;3.95;;
11608;SDS011;5860;52.018;8.536;2023-07-08T12:04:34;7.63;;;4.20;;
11608;SDS011;5860;52.018;8.536;2023-07-08T12:07:19;7.80;;;4.65;;
11608;SDS011;5860;52.018;8.536;2023-07-08T12:12:41;5.70;;;4.43;;
11608;SDS011;5860;52.018;8.536;2023-07-08T12:17:45;5.22;;;4.50;;
11608;SDS011;5860;52.018;8.536;2023-07-08T12:20:22;6.93;;;4.40;;
11608;SDS011;5860;52.018;8.536;2023-07-08T12:22:52;5.85;;;4.80;;
11608;SDS011;5860;52.018;8.536;2023-07-08T12:25:23;5.25;;;4.63;;
11608;SDS011;5860;52.018;8.536;2023-07-08T12:27:54;4.82;;;4.10;;
11608;SDS011;5860;52.018;8.536;2023-07-08T12:30:22;6.72;;;4.63;;
11608;SDS011;5860;52.018;8.536;2023-07-08T12:32:49;7.20;;;4.57;;
11608;SDS011;5860;52.018;8.536;2023-07-08T12:35:21;5.30;;;4.40;;
11608;SDS011;5860;52.018;8.536;2023-07-08T12:37:50;5.03;;;4.43;;
11608;SDS011;5860;52.018;8.536;2023-07-08T12:40:20;5.60;;;4.55;;
11608;SDS011;5860;52.018;8.536;2023-07-08T12:42:48;5.93;;;4.78;;
11608;SDS011;5860;52.018;8.536;2023-07-08T12:45:17;5.40;;;4.90;;
11608;SDS011;5860;52.018;8.536;2023-07-08T12:47:46;5.63;;;4.68;;
11608;SDS011;5860;52.018;8.536;2023-07-08T12:50:14;5.53;;;4.47;;
11608;SDS011;5860;52.018;8.536;2023-07-08T12:52:46;5.25;;;4.47;;
11608;SDS011;5860;52.018;8.536;2023-07-08T12:55:13;6.47;;;4.68;;
11608;SDS011;5860;52.018;8.536;2023-07-08T12:57:45;5.90;;;4.93;;
11608;SDS011;5860;52.018;8.536;2023-07-08T13:00:25;8.38;;;4.80;;
11608;SDS011;5860;52.018;8.536;2023-07-08T13:03:06;9.52;;;5.18;;
11608;SDS011;5860;52.018;8.536;2023-07-08T13:05:42;4.90;;;4.35;;
11608;SDS011;5860;52.018;8.536;2023-07-08T13:08:13;6.85;;;4.82;;
11608;SDS011;5860;52.018;8.536;2023-07-08T13:10:41;8.77;;;4.82;;
11608;SDS011;5860;52.018;8.536;2023-07-08T13:13:23;7.45;;;5.32;;
11608;SDS011;5860;52.018;8.536;2023-07-08T13:15:52;5.47;;;4.75;;
11608;SDS011;5860;52.018;8.536;2023-07-08T13:20:58;5.88;;;4.57;;
11608;SDS011;5860;52.018;8.536;2023-07-08T13:23:27;6.30;;;4.50;;
11608;SDS011;5860;52.018;8.536;2023-07-08T13:25:54;6.25;;;5.15;;
11608;SDS011;5860;52.018;8.536;2023-07-08T13:28:29;5.18;;;4.68;;
11608;SDS011;5860;52.018;8.536;2023-07-08T13:31:03;5.32;;;4.35;;
11608;SDS011;5860;52.018;8.536;2023-07-08T13:33:52;5.28;;;4.70;;
11608;SDS011;5860;52.018;8.536;2023-07-08T13:36:39;6.85;;;4.90;;
11608;SDS011;5860;52.018;8.536;2023-07-08T13:39:12;6.55;;;4.57;;
11608;SDS011;5860;52.018;8.536;2023-07-08T13:41:43;5.53;;;4.65;;
11608;SDS011;5860;52.018;8.536;2023-07-08T13:44:11;7.57;;;4.45;;
11608;SDS011;5860;52.018;8.536;2023-07-08T13:46:39;5.15;;;4.45;;
11608;SDS011;5860;52.018;8.536;2023-07-08T13:49:22;5.00;;;4.60;;
11608;SDS011;5860;52.018;8.536;2023-07-08T13:54:42;5.85;;;4.63;;
11608;SDS011;5860;52.018;8.536;2023-07-08T13:57:21;5.30;;;4.80;;
11608;SDS011;5860;52.018;8.536;2023-07-08T13:59:50;5.30;;;4.80;;
11608;SDS011;5860;52.018;8.536;2023-07-08T14:02:18;5.18;;;4.63;;
11608;SDS011;5860;52.018;8.536;2023-07-08T14:04:51;8.02;;;4.97;;
11608;SDS011;5860;52.018;8.536;2023-07-08T14:07:23;5.97;;;4.88;;
11608;SDS011;5860;52.018;8.536;2023-07-08T14:09:52;6.97;;;4.40;;
11608;SDS011;5860;52.018;8.536;2023-07-08T14:12:21;5.22;;;4.68;;
11608;SDS011;5860;52.018;8.536;2023-07-08T14:14:49;5.40;;;4.13;;
11608;SDS011;5860;52.018;8.536;2023-07-08T14:17:26;5.78;;;4.35;;
11608;SDS011;5860;52.018;8.536;2023-07-08T14:19:54;6.45;;;4.63;;
11608;SDS011;5860;52.018;8.536;2023-07-08T14:22:28;5.97;;;4.65;;
11608;SDS011;5860;52.018;8.536;2023-07-08T14:24:58;5.07;;;4.57;;
11608;SDS011;5860;52.018;8.536;2023-07-08T14:27:31;12.75;;;4.70;;
11608;SDS011;5860;52.018;8.536;2023-07-08T14:29:58;6.90;;;4.53;;
11608;SDS011;5860;52.018;8.536;2023-07-08T14:32:26;6.28;;;4.85;;
11608;SDS011;5860;52.018;8.536;2023-07-08T14:34:59;7.00;;;4.68;;
11608;SDS011;5860;52.018;8.536;2023-07-08T14:37:40;6.70;;;4.93;;
11608;SDS011;5860;52.018;8.536;2023-07-08T14:40:27;5.10;;;4.60;;
11608;SDS011;5860;52.018;8.536;2023-07-08T14:43:04;8.77;;;4.57;;
11608;SDS011;5860;52.018;8.536;2023-07-08T14:45:37;7.47;;;4.90;;
11608;SDS011;5860;52.018;8.536;2023-07-08T14:48:11;6.25;;;5.25;;
11608;SDS011;5860;52.018;8.536;2023-07-08T14:50:39;5.22;;;4.65;;
11608;SDS011;5860;52.018;8.536;2023-07-08T14:53:06;4.93;;;4.45;;
11608;SDS011;5860;52.018;8.536;2023-07-08T14:55:34;4.90;;;4.40;;
11608;SDS011;5860;52.018;8.536;2023-07-08T14:58:02;6.65;;;4.93;;
11608;SDS011;5860;52.018;8.536;2023-07-08T15:00:29;6.53;;;4.40;;
11608;SDS011;5860;52.018;8.536;2023-07-08T15:02:57;5.60;;;4.40;;
11608;SDS011;5860;52.018;8.536;2023-07-08T15:05:25;6.65;;;4.80;;
11608;SDS011;5860;52.018;8.536;2023-07-08T15:07:54;6.18;;;4.95;;
11608;SDS011;5860;52.018;8.536;2023-07-08T15:10:27;6.57;;;4.82;;
11608;SDS011;5860;52.018;8.536;2023-07-08T15:12:56;4.85;;;4.35;;
11608;SDS011;5860;52.018;8.536;2023-07-08T15:15:30;5.80;;;4.55;;
11608;SDS011;5860;52.018;8.536;2023-07-08T15:18:14;4.95;;;4.45;;
11608;SDS011;5860;52.018;8.536;2023-07-08T15:20:47;5.15;;;4.38;;
11608;SDS011;5860;52.018;8.536;2023-07-08T15:23:18;5.45;;;4.60;;
11608;SDS011;5860;52.018;8.536;2023-07-08T15:25:50;5.72;;;4.60;;
11608;SDS011;5860;52.018;8.536;2023-07-08T15:28:33;5.90;;;4.78;;
11608;SDS011;5860;52.018;8.536;2023-07-08T15:31:15;5.50;;;4.60;;
11608;SDS011;5860;52.018;8.536;2023-07-08T15:33:43;7.47;;;4.85;;
11608;SDS011;5860;52.018;8.536;2023-07-08T15:36:11;5.25;;;4.53;;
11608;SDS011;5860;52.018;8.536;2023-07-08T15:38:39;4.80;;;4.30;;
11608;SDS011;5860;52.018;8.536;2023-07-08T15:41:25;6.75;;;4.97;;
11608;SDS011;5860;52.018;8.536;2023-07-08T15:43:53;4.97;;;4.30;;
11608;SDS011;5860;52.018;8.536;2023-07-08T15:46:21;7.97;;;4.90;;
11608;SDS011;5860;52.018;8.536;2023-07-08T15:48:53;5.80;;;5.00;;
11608;SDS011;5860;52.018;8.536;2023-07-08T15:51:20;7.40;;;4.80;;
11608;SDS011;5860;52.018;8.536;2023-07-08T15:53:47;8.23;;;5.05;;
11608;SDS011;5860;52.018;8.536;2023-07-08T15:56:15;7.03;;;5.15;;
11608;SDS011;5860;52.018;8.536;2023-07-08T15:58:48;6.80;;;5.35;;
11608;SDS011;5860;52.018;8.536;2023-07-08T16:01:23;5.53;;;4.97;;
11608;SDS011;5860;52.018;8.536;2023-07-08T16:03:51;6.85;;;5.38;;
11608;SDS011;5860;52.018;8.536;2023-07-08T16:06:18;10.57;;;6.88;;
11608;SDS011;5860;52.018;8.536;2023-07-08T16:08:45;6.55;;;5.15;;
11608;SDS011;5860;52.018;8.536;2023-07-08T16:11:14;5.38;;;4.88;;
11608;SDS011;5860;52.018;8.536;2023-07-08T16:13:45;6.05;;;5.05;;
11608;SDS011;5860;52.018;8.536;2023-07-08T16:16:13;6.22;;;5.32;;
11608;SDS011;5860;52.018;8.536;2023-07-08T16:18:40;9.55;;;5.35;;
11608;SDS011;5860;52.018;8.536;2023-07-08T16:21:07;6.25;;;5.13;;
11608;SDS011;5860;52.018;8.536;2023-07-08T16:23:36;5.32;;;4.82;;
11608;SDS011;5860;52.018;8.536;2023-07-08T16:26:03;5.60;;;5.10;;
11608;SDS011;5860;52.018;8.536;2023-07-08T16:28:33;5.82;;;4.32;;
11608;SDS011;5860;52.018;8.536;2023-07-08T16:31:13;8.77;;;4.82;;
11608;SDS011;5860;52.018;8.536;2023-07-08T16:33:42;5.97;;;4.70;;
11608;SDS011;5860;52.018;8.536;2023-07-08T16:36:17;5.32;;;4.75;;